sensor_id;sensor_type;location;lat;lon;timestamp;P1;durP1;ratioP1;P2;durP2;ratioP2
77170;SDS011;66144;50.020;14.422;2023-07-20T00:00:25;6.35;;;2.10;;
77170;SDS011;66144;50.020;14.422;2023-07-20T00:02:50;4.63;;;2.15;;
77170;SDS011;66144;50.020;14.422;2023-07-20T00:05:17;3.60;;;1.92;;
77170;SDS011;66144;50.020;14.422;2023-07-20T00:07:46;4.18;;;2.00;;
77170;SDS011;66144;50.020;14.422;2023-07-20T00:10:12;4.13;;;2.10;;
77170;SDS011;66144;50.020;14.422;2023-07-20T00:12:37;3.20;;;2.20;;
77170;SDS011;66144;50.020;14.422;2023-07-20T00:15:03;4.47;;;2.17;;
77170;SDS011;66144;50.020;14.422;2023-07-20T00:17:29;4.00;;;1.80;;
77170;SDS011;66144;50.020;14.422;2023-07-20T00:19:54;3.70;;;1.80;;
77170;SDS011;66144;50.020;14.422;2023-07-20T00:22:20;4.90;;;2.15;;
77170;SDS011;66144;50.020;14.422;2023-07-20T00:24:45;3.50;;;2.05;;
77170;SDS011;66144;50.020;14.422;2023-07-20T00:27:10;2.67;;;1.77;;
77170;SDS011;66144;50.020;14.422;2023-07-20T00:29:36;4.47;;;2.30;;
77170;SDS011;66144;50.020;14.422;2023-07-20T00:32:01;3.28;;;1.73;;
77170;SDS011;66144;50.020;14.422;2023-07-20T00:34:29;3.15;;;2.13;;
77170;SDS011;66144;50.020;14.422;2023-07-20T00:36:55;4.05;;;2.03;;
77170;SDS011;66144;50.020;14.422;2023-07-20T00:39:20;3.33;;;1.90;;
77170;SDS011;66144;50.020;14.422;2023-07-20T00:41:46;3.63;;;1.92;;
77170;SDS011;66144;50.020;14.422;2023-07-20T00:44:11;3.75;;;1.98;;
77170;SDS011;66144;50.020;14.422;2023-07-20T00:46:37;5.35;;;2.08;;
77170;SDS011;66144;50.020;14.422;2023-07-20T00:49:02;4.10;;;1.95;;
77170;SDS011;66144;50.020;14.422;2023-07-20T00:51:28;3.65;;;2.10;;
77170;SDS011;66144;50.020;14.422;2023-07-20T00:53:53;3.75;;;1.80;;
77170;SDS011;66144;50.020;14.422;2023-07-20T00:56:19;3.80;;;1.70;;
77170;SDS011;66144;50.020;14.422;2023-07-20T00:58:44;3.63;;;2.33;;
77170;SDS011;66144;50.020;14.422;2023-07-20T01:01:10;3.10;;;1.70;;
77170;SDS011;66144;50.020;14.422;2023-07-20T01:03:36;3.60;;;2.25;;
77170;SDS011;66144;50.020;14.422;2023-07-20T01:08:40;6.18;;;2.30;;
77170;SDS011;66144;50.020;14.422;2023-07-20T01:11:16;4.28;;;2.30;;
77170;SDS011;66144;50.020;14.422;2023-07-20T01:13:47;3.85;;;2.05;;
77170;SDS011;66144;50.020;14.422;2023-07-20T01:16:13;5.35;;;1.80;;
77170;SDS011;66144;50.020;14.422;2023-07-20T01:18:38;4.00;;;2.17;;
77170;SDS011;66144;50.020;14.422;2023-07-20T01:21:06;4.00;;;2.25;;
77170;SDS011;66144;50.020;14.422;2023-07-20T01:32:12;4.95;;;2.50;;
77170;SDS011;66144;50.020;14.422;2023-07-20T01:34:40;5.88;;;2.10;;
77170;SDS011;66144;50.020;14.422;2023-07-20T01:37:06;3.55;;;1.90;;
77170;SDS011;66144;50.020;14.422;2023-07-20T01:39:32;3.38;;;2.03;;
77170;SDS011;66144;50.020;14.422;2023-07-20T01:41:58;2.70;;;1.80;;
77170;SDS011;66144;50.020;14.422;2023-07-20T01:44:24;3.72;;;2.00;;
77170;SDS011;66144;50.020;14.422;2023-07-20T01:46:49;4.53;;;2.40;;
77170;SDS011;66144;50.020;14.422;2023-07-20T01:49:14;6.13;;;2.20;;
77170;SDS011;66144;50.020;14.422;2023-07-20T01:51:40;4.20;;;2.00;;
77170;SDS011;66144;50.020;14.422;2023-07-20T01:54:06;4.07;;;2.20;;
77170;SDS011;66144;50.020;14.422;2023-07-20T01:56:31;3.85;;;1.75;;
77170;SDS011;66144;50.020;14.422;2023-07-20T01:58:56;3.70;;;2.08;;
77170;SDS011;66144;50.020;14.422;2023-07-20T02:01:22;5.63;;;2.30;;
77170;SDS011;66144;50.020;14.422;2023-07-20T02:03:47;4.47;;;2.42;;
77170;SDS011;66144;50.020;14.422;2023-07-20T02:06:13;4.78;;;2.20;;
77170;SDS011;66144;50.020;14.422;2023-07-20T02:08:39;5.07;;;2.38;;
77170;SDS011;66144;50.020;14.422;2023-07-20T02:11:04;4.72;;;2.13;;
77170;SDS011;66144;50.020;14.422;2023-07-20T02:13:30;5.40;;;2.13;;
77170;SDS011;66144;50.020;14.422;2023-07-20T02:15:55;3.65;;;1.65;;
77170;SDS011;66144;50.020;14.422;2023-07-20T02:18:21;4.13;;;2.22;;
77170;SDS011;66144;50.020;14.422;2023-07-20T02:20:46;3.58;;;2.30;;
77170;SDS011;66144;50.020;14.422;2023-07-20T02:23:11;3.33;;;1.85;;
77170;SDS011;66144;50.020;14.422;2023-07-20T02:25:37;3.95;;;1.88;;
77170;SDS011;66144;50.020;14.422;2023-07-20T02:28:03;3.92;;;2.10;;
77170;SDS011;66144;50.020;14.422;2023-07-20T02:30:29;3.33;;;1.90;;
77170;SDS011;66144;50.020;14.422;2023-07-20T02:32:54;6.15;;;2.15;;
77170;SDS011;66144;50.020;14.422;2023-07-20T02:35:23;4.25;;;2.05;;
77170;SDS011;66144;50.020;14.422;2023-07-20T02:37:49;4.13;;;2.20;;
77170;SDS011;66144;50.020;14.422;2023-07-20T02:40:14;3.80;;;2.38;;
77170;SDS011;66144;50.020;14.422;2023-07-20T02:42:39;3.63;;;2.28;;
77170;SDS011;66144;50.020;14.422;2023-07-20T02:45:05;3.80;;;2.03;;
77170;SDS011;66144;50.020;14.422;2023-07-20T02:47:31;3.88;;;2.20;;
77170;SDS011;66144;50.020;14.422;2023-07-20T02:49:56;5.57;;;2.28;;
77170;SDS011;66144;50.020;14.422;2023-07-20T02:52:22;3.55;;;2.17;;
77170;SDS011;66144;50.020;14.422;2023-07-20T02:54:48;6.47;;;2.28;;
77170;SDS011;66144;50.020;14.422;2023-07-20T02:57:13;3.67;;;2.25;;
77170;SDS011;66144;50.020;14.422;2023-07-20T02:59:39;3.30;;;2.13;;
77170;SDS011;66144;50.020;14.422;2023-07-20T03:02:04;4.20;;;2.25;;
77170;SDS011;66144;50.020;14.422;2023-07-20T03:04:30;5.38;;;2.15;;
77170;SDS011;66144;50.020;14.422;2023-07-20T03:06:55;4.55;;;2.47;;
77170;SDS011;66144;50.020;14.422;2023-07-20T03:09:20;3.00;;;1.95;;
77170;SDS011;66144;50.020;14.422;2023-07-20T03:11:47;3.28;;;2.15;;
77170;SDS011;66144;50.020;14.422;2023-07-20T03:14:12;3.97;;;2.22;;
77170;SDS011;66144;50.020;14.422;2023-07-20T03:16:38;3.55;;;2.10;;
77170;SDS011;66144;50.020;14.422;2023-07-20T03:19:03;4.15;;;2.08;;
77170;SDS011;66144;50.020;14.422;2023-07-20T03:21:29;3.88;;;2.10;;
77170;SDS011;66144;50.020;14.422;2023-07-20T03:23:55;4.40;;;2.50;;
77170;SDS011;66144;50.020;14.422;2023-07-20T03:26:20;3.05;;;2.10;;
77170;SDS011;66144;50.020;14.422;2023-07-20T03:28:46;6.68;;;2.50;;
77170;SDS011;66144;50.020;14.422;2023-07-20T03:31:11;3.83;;;2.10;;
77170;SDS011;66144;50.020;14.422;2023-07-20T03:33:37;4.30;;;2.25;;
77170;SDS011;66144;50.020;14.422;2023-07-20T03:36:02;4.18;;;2.15;;
77170;SDS011;66144;50.020;14.422;2023-07-20T03:38:27;4.88;;;2.42;;
77170;SDS011;66144;50.020;14.422;2023-07-20T03:40:53;3.15;;;2.13;;
77170;SDS011;66144;50.020;14.422;2023-07-20T03:43:19;3.85;;;2.30;;
77170;SDS011;66144;50.020;14.422;2023-07-20T03:45:46;4.68;;;2.28;;
77170;SDS011;66144;50.020;14.422;2023-07-20T03:48:13;5.32;;;2.70;;
77170;SDS011;66144;50.020;14.422;2023-07-20T03:50:42;4.15;;;2.03;;
77170;SDS011;66144;50.020;14.422;2023-07-20T03:53:08;4.05;;;2.47;;
77170;SDS011;66144;50.020;14.422;2023-07-20T03:55:34;3.28;;;2.38;;
77170;SDS011;66144;50.020;14.422;2023-07-20T03:57:59;3.85;;;2.42;;
77170;SDS011;66144;50.020;14.422;2023-07-20T04:00:24;4.18;;;2.28;;
77170;SDS011;66144;50.020;14.422;2023-07-20T04:02:50;4.35;;;2.53;;
77170;SDS011;66144;50.020;14.422;2023-07-20T04:05:15;4.25;;;2.40;;
77170;SDS011;66144;50.020;14.422;2023-07-20T04:07:41;4.45;;;2.15;;
77170;SDS011;66144;50.020;14.422;2023-07-20T04:10:06;6.25;;;2.40;;
77170;SDS011;66144;50.020;14.422;2023-07-20T04:12:32;5.22;;;2.33;;
77170;SDS011;66144;50.020;14.422;2023-07-20T04:14:58;4.97;;;2.50;;
77170;SDS011;66144;50.020;14.422;2023-07-20T04:17:23;4.60;;;2.30;;
77170;SDS011;66144;50.020;14.422;2023-07-20T04:19:49;4.18;;;2.30;;
77170;SDS011;66144;50.020;14.422;2023-07-20T04:22:14;4.65;;;2.40;;
77170;SDS011;66144;50.020;14.422;2023-07-20T04:24:41;4.25;;;2.45;;
77170;SDS011;66144;50.020;14.422;2023-07-20T04:27:07;5.05;;;2.70;;
77170;SDS011;66144;50.020;14.422;2023-07-20T04:29:33;4.35;;;2.25;;
77170;SDS011;66144;50.020;14.422;2023-07-20T04:31:58;4.13;;;2.70;;
77170;SDS011;66144;50.020;14.422;2023-07-20T04:34:23;4.65;;;2.38;;
77170;SDS011;66144;50.020;14.422;2023-07-20T04:36:49;4.00;;;2.30;;
77170;SDS011;66144;50.020;14.422;2023-07-20T04:39:14;4.40;;;2.50;;
77170;SDS011;66144;50.020;14.422;2023-07-20T04:41:39;6.68;;;2.78;;
77170;SDS011;66144;50.020;14.422;2023-07-20T04:44:05;5.05;;;2.63;;
77170;SDS011;66144;50.020;14.422;2023-07-20T04:46:30;4.07;;;2.58;;
77170;SDS011;66144;50.020;14.422;2023-07-20T04:48:56;3.90;;;2.58;;
77170;SDS011;66144;50.020;14.422;2023-07-20T04:51:21;6.03;;;2.65;;
77170;SDS011;66144;50.020;14.422;2023-07-20T04:53:47;7.70;;;2.65;;
77170;SDS011;66144;50.020;14.422;2023-07-20T04:56:13;4.82;;;2.45;;
77170;SDS011;66144;50.020;14.422;2023-07-20T04:58:38;5.60;;;3.10;;
77170;SDS011;66144;50.020;14.422;2023-07-20T05:01:04;5.47;;;2.75;;
77170;SDS011;66144;50.020;14.422;2023-07-20T05:03:29;5.38;;;2.90;;
77170;SDS011;66144;50.020;14.422;2023-07-20T05:05:55;6.13;;;2.70;;
77170;SDS011;66144;50.020;14.422;2023-07-20T05:08:20;5.45;;;2.72;;
77170;SDS011;66144;50.020;14.422;2023-07-20T05:10:47;4.63;;;2.95;;
77170;SDS011;66144;50.020;14.422;2023-07-20T05:13:12;4.20;;;2.33;;
77170;SDS011;66144;50.020;14.422;2023-07-20T05:15:38;6.57;;;2.80;;
77170;SDS011;66144;50.020;14.422;2023-07-20T05:18:03;7.03;;;2.78;;
77170;SDS011;66144;50.020;14.422;2023-07-20T05:20:29;4.75;;;2.80;;
77170;SDS011;66144;50.020;14.422;2023-07-20T05:22:56;6.18;;;3.53;;
77170;SDS011;66144;50.020;14.422;2023-07-20T05:25:21;5.70;;;2.90;;
77170;SDS011;66144;50.020;14.422;2023-07-20T05:27:47;6.00;;;2.70;;
77170;SDS011;66144;50.020;14.422;2023-07-20T05:30:13;6.90;;;2.75;;
77170;SDS011;66144;50.020;14.422;2023-07-20T05:32:38;8.10;;;2.95;;
77170;SDS011;66144;50.020;14.422;2023-07-20T05:35:04;6.95;;;2.70;;
77170;SDS011;66144;50.020;14.422;2023-07-20T05:37:29;5.05;;;2.60;;
77170;SDS011;66144;50.020;14.422;2023-07-20T05:39:55;7.35;;;3.53;;
77170;SDS011;66144;50.020;14.422;2023-07-20T05:42:20;5.45;;;2.70;;
77170;SDS011;66144;50.020;14.422;2023-07-20T05:44:46;4.40;;;2.60;;
77170;SDS011;66144;50.020;14.422;2023-07-20T05:47:13;4.38;;;2.53;;
77170;SDS011;66144;50.020;14.422;2023-07-20T05:49:38;4.15;;;2.65;;
77170;SDS011;66144;50.020;14.422;2023-07-20T05:52:06;4.05;;;2.80;;
77170;SDS011;66144;50.020;14.422;2023-07-20T05:54:32;4.57;;;3.00;;
77170;SDS011;66144;50.020;14.422;2023-07-20T05:56:57;5.68;;;3.03;;
77170;SDS011;66144;50.020;14.422;2023-07-20T05:59:23;7.07;;;3.35;;
77170;SDS011;66144;50.020;14.422;2023-07-20T06:01:49;6.55;;;3.00;;
77170;SDS011;66144;50.020;14.422;2023-07-20T06:04:15;5.60;;;3.13;;
77170;SDS011;66144;50.020;14.422;2023-07-20T06:06:40;9.10;;;2.92;;
77170;SDS011;66144;50.020;14.422;2023-07-20T06:09:06;5.63;;;3.10;;
77170;SDS011;66144;50.020;14.422;2023-07-20T06:11:35;5.47;;;2.83;;
77170;SDS011;66144;50.020;14.422;2023-07-20T06:14:01;5.68;;;3.00;;
77170;SDS011;66144;50.020;14.422;2023-07-20T06:16:26;5.93;;;3.05;;
77170;SDS011;66144;50.020;14.422;2023-07-20T06:18:51;7.70;;;3.13;;
77170;SDS011;66144;50.020;14.422;2023-07-20T06:21:17;6.03;;;2.75;;
77170;SDS011;66144;50.020;14.422;2023-07-20T06:23:42;4.55;;;2.25;;
77170;SDS011;66144;50.020;14.422;2023-07-20T06:26:07;4.40;;;2.70;;
77170;SDS011;66144;50.020;14.422;2023-07-20T06:28:33;4.90;;;2.20;;
77170;SDS011;66144;50.020;14.422;2023-07-20T06:31:02;4.50;;;2.30;;
77170;SDS011;66144;50.020;14.422;2023-07-20T06:33:28;4.97;;;2.58;;
77170;SDS011;66144;50.020;14.422;2023-07-20T06:35:53;4.07;;;2.33;;
77170;SDS011;66144;50.020;14.422;2023-07-20T06:38:19;4.93;;;2.10;;
77170;SDS011;66144;50.020;14.422;2023-07-20T06:40:47;4.03;;;2.22;;
77170;SDS011;66144;50.020;14.422;2023-07-20T06:43:13;3.53;;;2.17;;
77170;SDS011;66144;50.020;14.422;2023-07-20T06:45:38;4.68;;;2.40;;
77170;SDS011;66144;50.020;14.422;2023-07-20T06:48:04;3.72;;;2.20;;
77170;SDS011;66144;50.020;14.422;2023-07-20T06:50:29;4.22;;;2.22;;
77170;SDS011;66144;50.020;14.422;2023-07-20T06:52:55;3.80;;;1.92;;
77170;SDS011;66144;50.020;14.422;2023-07-20T06:55:20;3.75;;;2.10;;
77170;SDS011;66144;50.020;14.422;2023-07-20T06:57:46;3.05;;;2.08;;
77170;SDS011;66144;50.020;14.422;2023-07-20T07:00:12;3.45;;;2.13;;
77170;SDS011;66144;50.020;14.422;2023-07-20T07:02:37;3.42;;;2.05;;
77170;SDS011;66144;50.020;14.422;2023-07-20T07:05:03;4.60;;;2.00;;
77170;SDS011;66144;50.020;14.422;2023-07-20T07:07:29;4.65;;;2.20;;
77170;SDS011;66144;50.020;14.422;2023-07-20T07:09:54;3.88;;;2.08;;
77170;SDS011;66144;50.020;14.422;2023-07-20T07:12:19;5.55;;;2.30;;
77170;SDS011;66144;50.020;14.422;2023-07-20T07:14:45;3.60;;;2.13;;
77170;SDS011;66144;50.020;14.422;2023-07-20T07:17:10;4.55;;;2.30;;
77170;SDS011;66144;50.020;14.422;2023-07-20T07:19:36;3.35;;;1.83;;
77170;SDS011;66144;50.020;14.422;2023-07-20T07:22:02;3.08;;;1.88;;
77170;SDS011;66144;50.020;14.422;2023-07-20T07:24:28;4.75;;;1.95;;
77170;SDS011;66144;50.020;14.422;2023-07-20T07:26:58;4.25;;;1.88;;
77170;SDS011;66144;50.020;14.422;2023-07-20T07:29:24;6.57;;;1.95;;
77170;SDS011;66144;50.020;14.422;2023-07-20T07:31:49;3.95;;;2.30;;
77170;SDS011;66144;50.020;14.422;2023-07-20T07:34:15;3.55;;;1.88;;
77170;SDS011;66144;50.020;14.422;2023-07-20T07:36:40;6.13;;;2.03;;
77170;SDS011;66144;50.020;14.422;2023-07-20T07:39:05;3.72;;;1.83;;
77170;SDS011;66144;50.020;14.422;2023-07-20T07:41:31;4.25;;;1.90;;
77170;SDS011;66144;50.020;14.422;2023-07-20T07:43:56;3.35;;;2.00;;
77170;SDS011;66144;50.020;14.422;2023-07-20T07:46:21;2.83;;;1.67;;
77170;SDS011;66144;50.020;14.422;2023-07-20T07:48:47;4.43;;;2.05;;
77170;SDS011;66144;50.020;14.422;2023-07-20T07:51:12;3.83;;;1.80;;
77170;SDS011;66144;50.020;14.422;2023-07-20T07:53:39;4.13;;;1.92;;
77170;SDS011;66144;50.020;14.422;2023-07-20T07:56:06;3.33;;;1.77;;
77170;SDS011;66144;50.020;14.422;2023-07-20T07:58:32;2.85;;;1.60;;
77170;SDS011;66144;50.020;14.422;2023-07-20T08:00:58;2.50;;;1.65;;
77170;SDS011;66144;50.020;14.422;2023-07-20T08:03:23;3.63;;;1.35;;
77170;SDS011;66144;50.020;14.422;2023-07-20T08:05:49;3.58;;;1.73;;
77170;SDS011;66144;50.020;14.422;2023-07-20T08:08:15;4.03;;;1.80;;
77170;SDS011;66144;50.020;14.422;2023-07-20T08:10:40;2.17;;;1.48;;
77170;SDS011;66144;50.020;14.422;2023-07-20T08:13:05;3.15;;;1.42;;
77170;SDS011;66144;50.020;14.422;2023-07-20T08:15:31;2.83;;;1.33;;
77170;SDS011;66144;50.020;14.422;2023-07-20T08:17:59;3.17;;;1.98;;
77170;SDS011;66144;50.020;14.422;2023-07-20T08:20:25;3.47;;;1.63;;
77170;SDS011;66144;50.020;14.422;2023-07-20T08:22:52;4.10;;;1.65;;
77170;SDS011;66144;50.020;14.422;2023-07-20T08:25:19;3.20;;;1.50;;
77170;SDS011;66144;50.020;14.422;2023-07-20T08:27:45;2.72;;;1.55;;
77170;SDS011;66144;50.020;14.422;2023-07-20T08:30:12;4.10;;;1.80;;
77170;SDS011;66144;50.020;14.422;2023-07-20T08:32:38;2.60;;;1.63;;
77170;SDS011;66144;50.020;14.422;2023-07-20T08:35:03;3.67;;;1.63;;
77170;SDS011;66144;50.020;14.422;2023-07-20T08:37:29;2.70;;;1.60;;
77170;SDS011;66144;50.020;14.422;2023-07-20T08:39:55;2.47;;;1.50;;
77170;SDS011;66144;50.020;14.422;2023-07-20T08:42:20;4.90;;;2.10;;
77170;SDS011;66144;50.020;14.422;2023-07-20T08:44:47;2.90;;;1.70;;
77170;SDS011;66144;50.020;14.422;2023-07-20T08:47:17;3.30;;;1.73;;
77170;SDS011;66144;50.020;14.422;2023-07-20T08:49:44;2.25;;;1.40;;
77170;SDS011;66144;50.020;14.422;2023-07-20T08:52:13;3.83;;;1.60;;
77170;SDS011;66144;50.020;14.422;2023-07-20T08:54:39;3.90;;;1.90;;
77170;SDS011;66144;50.020;14.422;2023-07-20T08:57:04;2.67;;;1.70;;
77170;SDS011;66144;50.020;14.422;2023-07-20T08:59:31;3.28;;;1.63;;
77170;SDS011;66144;50.020;14.422;2023-07-20T09:01:58;3.03;;;1.70;;
77170;SDS011;66144;50.020;14.422;2023-07-20T09:04:24;2.78;;;1.60;;
77170;SDS011;66144;50.020;14.422;2023-07-20T09:06:49;4.65;;;2.03;;
77170;SDS011;66144;50.020;14.422;2023-07-20T09:09:15;3.20;;;1.95;;
77170;SDS011;66144;50.020;14.422;2023-07-20T09:11:41;3.70;;;1.90;;
77170;SDS011;66144;50.020;14.422;2023-07-20T09:14:07;4.32;;;2.00;;
77170;SDS011;66144;50.020;14.422;2023-07-20T09:16:51;3.00;;;1.60;;
77170;SDS011;66144;50.020;14.422;2023-07-20T09:19:21;4.07;;;1.70;;
77170;SDS011;66144;50.020;14.422;2023-07-20T09:21:51;2.53;;;1.65;;
77170;SDS011;66144;50.020;14.422;2023-07-20T09:24:17;3.75;;;1.70;;
77170;SDS011;66144;50.020;14.422;2023-07-20T09:26:44;3.83;;;2.08;;
77170;SDS011;66144;50.020;14.422;2023-07-20T09:29:10;3.95;;;1.88;;
77170;SDS011;66144;50.020;14.422;2023-07-20T09:31:37;3.88;;;1.67;;
77170;SDS011;66144;50.020;14.422;2023-07-20T09:34:03;4.03;;;1.73;;
77170;SDS011;66144;50.020;14.422;2023-07-20T09:36:29;6.35;;;1.70;;
77170;SDS011;66144;50.020;14.422;2023-07-20T09:38:58;2.72;;;1.73;;
77170;SDS011;66144;50.020;14.422;2023-07-20T09:41:24;2.28;;;1.70;;
77170;SDS011;66144;50.020;14.422;2023-07-20T09:43:50;3.83;;;1.60;;
77170;SDS011;66144;50.020;14.422;2023-07-20T09:46:16;4.40;;;1.77;;
77170;SDS011;66144;50.020;14.422;2023-07-20T09:48:45;3.85;;;1.80;;
77170;SDS011;66144;50.020;14.422;2023-07-20T09:51:18;5.75;;;1.48;;
77170;SDS011;66144;50.020;14.422;2023-07-20T09:53:46;2.05;;;1.38;;
77170;SDS011;66144;50.020;14.422;2023-07-20T09:56:13;2.53;;;1.63;;
77170;SDS011;66144;50.020;14.422;2023-07-20T09:58:41;3.92;;;1.70;;
77170;SDS011;66144;50.020;14.422;2023-07-20T10:01:08;3.75;;;2.03;;
77170;SDS011;66144;50.020;14.422;2023-07-20T10:03:35;3.25;;;1.60;;
77170;SDS011;66144;50.020;14.422;2023-07-20T10:06:05;2.67;;;1.60;;
77170;SDS011;66144;50.020;14.422;2023-07-20T10:08:34;3.97;;;1.85;;
77170;SDS011;66144;50.020;14.422;2023-07-20T10:11:03;3.05;;;1.58;;
77170;SDS011;66144;50.020;14.422;2023-07-20T10:13:30;2.90;;;1.60;;
77170;SDS011;66144;50.020;14.422;2023-07-20T10:16:03;2.85;;;1.60;;
77170;SDS011;66144;50.020;14.422;2023-07-20T10:21:02;3.70;;;1.70;;
77170;SDS011;66144;50.020;14.422;2023-07-20T10:23:31;3.67;;;1.65;;
77170;SDS011;66144;50.020;14.422;2023-07-20T10:25:58;4.05;;;2.03;;
77170;SDS011;66144;50.020;14.422;2023-07-20T10:28:25;2.80;;;1.70;;
77170;SDS011;66144;50.020;14.422;2023-07-20T10:30:51;3.67;;;2.05;;
77170;SDS011;66144;50.020;14.422;2023-07-20T10:33:17;3.88;;;1.77;;
77170;SDS011;66144;50.020;14.422;2023-07-20T10:35:57;3.33;;;2.22;;
77170;SDS011;66144;50.020;14.422;2023-07-20T10:41:29;3.15;;;1.88;;
77170;SDS011;66144;50.020;14.422;2023-07-20T10:44:01;3.03;;;1.77;;
77170;SDS011;66144;50.020;14.422;2023-07-20T10:46:34;2.65;;;1.80;;
77170;SDS011;66144;50.020;14.422;2023-07-20T10:49:10;2.72;;;1.67;;
77170;SDS011;66144;50.020;14.422;2023-07-20T10:56:43;2.85;;;1.65;;
77170;SDS011;66144;50.020;14.422;2023-07-20T10:59:19;4.47;;;2.42;;
77170;SDS011;66144;50.020;14.422;2023-07-20T11:02:02;2.97;;;1.65;;
77170;SDS011;66144;50.020;14.422;2023-07-20T11:04:40;2.85;;;1.92;;
77170;SDS011;66144;50.020;14.422;2023-07-20T11:07:07;3.90;;;1.70;;
77170;SDS011;66144;50.020;14.422;2023-07-20T11:09:36;3.20;;;1.77;;
77170;SDS011;66144;50.020;14.422;2023-07-20T11:12:15;4.15;;;2.03;;
77170;SDS011;66144;50.020;14.422;2023-07-20T11:14:42;4.10;;;2.10;;
77170;SDS011;66144;50.020;14.422;2023-07-20T11:17:29;4.43;;;1.83;;
77170;SDS011;66144;50.020;14.422;2023-07-20T11:19:56;2.72;;;1.83;;
77170;SDS011;66144;50.020;14.422;2023-07-20T11:22:22;2.85;;;1.98;;
77170;SDS011;66144;50.020;14.422;2023-07-20T11:24:48;3.03;;;1.73;;
77170;SDS011;66144;50.020;14.422;2023-07-20T11:27:16;4.38;;;2.05;;
77170;SDS011;66144;50.020;14.422;2023-07-20T11:29:45;2.30;;;1.40;;
77170;SDS011;66144;50.020;14.422;2023-07-20T11:32:10;4.38;;;1.73;;
77170;SDS011;66144;50.020;14.422;2023-07-20T11:34:35;2.65;;;1.80;;
77170;SDS011;66144;50.020;14.422;2023-07-20T11:37:01;3.42;;;1.90;;
77170;SDS011;66144;50.020;14.422;2023-07-20T11:39:28;3.45;;;1.77;;
77170;SDS011;66144;50.020;14.422;2023-07-20T11:41:54;3.35;;;1.88;;
77170;SDS011;66144;50.020;14.422;2023-07-20T11:44:30;3.00;;;1.80;;
77170;SDS011;66144;50.020;14.422;2023-07-20T11:47:06;3.25;;;1.88;;
77170;SDS011;66144;50.020;14.422;2023-07-20T11:49:36;2.72;;;1.73;;
77170;SDS011;66144;50.020;14.422;2023-07-20T11:52:09;3.83;;;2.10;;
77170;SDS011;66144;50.020;14.422;2023-07-20T11:54:37;3.00;;;1.55;;
77170;SDS011;66144;50.020;14.422;2023-07-20T11:57:04;2.67;;;1.63;;
77170;SDS011;66144;50.020;14.422;2023-07-20T11:59:33;2.83;;;1.67;;
77170;SDS011;66144;50.020;14.422;2023-07-20T12:02:00;5.70;;;1.92;;
77170;SDS011;66144;50.020;14.422;2023-07-20T12:04:28;2.97;;;2.00;;
77170;SDS011;66144;50.020;14.422;2023-07-20T12:06:53;2.85;;;1.80;;
77170;SDS011;66144;50.020;14.422;2023-07-20T12:09:20;4.55;;;1.52;;
77170;SDS011;66144;50.020;14.422;2023-07-20T12:11:48;5.18;;;1.75;;
77170;SDS011;66144;50.020;14.422;2023-07-20T12:14:14;3.67;;;1.73;;
77170;SDS011;66144;50.020;14.422;2023-07-20T12:16:41;3.88;;;2.45;;
77170;SDS011;66144;50.020;14.422;2023-07-20T12:19:07;3.42;;;1.70;;
77170;SDS011;66144;50.020;14.422;2023-07-20T12:21:37;3.95;;;1.92;;
77170;SDS011;66144;50.020;14.422;2023-07-20T12:24:05;2.08;;;1.42;;
77170;SDS011;66144;50.020;14.422;2023-07-20T12:26:31;5.57;;;1.95;;
77170;SDS011;66144;50.020;14.422;2023-07-20T12:28:58;4.38;;;1.63;;
77170;SDS011;66144;50.020;14.422;2023-07-20T12:31:23;2.97;;;1.80;;
77170;SDS011;66144;50.020;14.422;2023-07-20T12:33:50;2.80;;;1.45;;
77170;SDS011;66144;50.020;14.422;2023-07-20T12:36:17;3.00;;;1.55;;
77170;SDS011;66144;50.020;14.422;2023-07-20T12:38:42;3.15;;;1.60;;
77170;SDS011;66144;50.020;14.422;2023-07-20T12:41:09;3.60;;;1.80;;
77170;SDS011;66144;50.020;14.422;2023-07-20T12:43:37;3.00;;;1.90;;
77170;SDS011;66144;50.020;14.422;2023-07-20T12:46:03;4.03;;;2.00;;
77170;SDS011;66144;50.020;14.422;2023-07-20T12:48:29;4.00;;;1.90;;
77170;SDS011;66144;50.020;14.422;2023-07-20T12:50:54;2.90;;;1.80;;
77170;SDS011;66144;50.020;14.422;2023-07-20T12:53:20;2.78;;;1.83;;
77170;SDS011;66144;50.020;14.422;2023-07-20T12:55:45;3.90;;;2.00;;
77170;SDS011;66144;50.020;14.422;2023-07-20T12:58:11;3.10;;;1.58;;
77170;SDS011;66144;50.020;14.422;2023-07-20T13:00:37;4.38;;;2.10;;
77170;SDS011;66144;50.020;14.422;2023-07-20T13:03:02;5.28;;;2.08;;
77170;SDS011;66144;50.020;14.422;2023-07-20T13:05:32;2.58;;;1.70;;
77170;SDS011;66144;50.020;14.422;2023-07-20T13:07:57;3.55;;;1.90;;
77170;SDS011;66144;50.020;14.422;2023-07-20T13:10:23;3.10;;;1.50;;
77170;SDS011;66144;50.020;14.422;2023-07-20T13:12:48;4.47;;;1.92;;
77170;SDS011;66144;50.020;14.422;2023-07-20T13:15:14;4.80;;;1.75;;
77170;SDS011;66144;50.020;14.422;2023-07-20T13:17:39;3.55;;;1.98;;
77170;SDS011;66144;50.020;14.422;2023-07-20T13:20:05;3.58;;;1.55;;
77170;SDS011;66144;50.020;14.422;2023-07-20T13:22:33;2.50;;;1.70;;
77170;SDS011;66144;50.020;14.422;2023-07-20T13:24:59;2.85;;;1.92;;
77170;SDS011;66144;50.020;14.422;2023-07-20T13:27:25;3.63;;;1.70;;
77170;SDS011;66144;50.020;14.422;2023-07-20T13:29:51;2.95;;;1.90;;
77170;SDS011;66144;50.020;14.422;2023-07-20T13:32:17;3.63;;;1.70;;
77170;SDS011;66144;50.020;14.422;2023-07-20T13:34:46;4.25;;;1.77;;
77170;SDS011;66144;50.020;14.422;2023-07-20T13:37:11;3.88;;;1.55;;
77170;SDS011;66144;50.020;14.422;2023-07-20T13:39:37;2.05;;;1.23;;
77170;SDS011;66144;50.020;14.422;2023-07-20T13:42:03;4.00;;;2.00;;
77170;SDS011;66144;50.020;14.422;2023-07-20T13:44:33;3.83;;;1.58;;
77170;SDS011;66144;50.020;14.422;2023-07-20T13:46:59;3.47;;;1.67;;
77170;SDS011;66144;50.020;14.422;2023-07-20T13:49:25;3.40;;;1.77;;
77170;SDS011;66144;50.020;14.422;2023-07-20T13:51:50;2.53;;;1.63;;
77170;SDS011;66144;50.020;14.422;2023-07-20T13:54:16;3.88;;;1.80;;
77170;SDS011;66144;50.020;14.422;2023-07-20T13:56:41;2.00;;;1.52;;
77170;SDS011;66144;50.020;14.422;2023-07-20T13:59:07;2.63;;;1.60;;
77170;SDS011;66144;50.020;14.422;2023-07-20T14:01:32;3.13;;;1.73;;
77170;SDS011;66144;50.020;14.422;2023-07-20T14:03:59;3.22;;;1.70;;
77170;SDS011;66144;50.020;14.422;2023-07-20T14:06:25;3.05;;;1.50;;
77170;SDS011;66144;50.020;14.422;2023-07-20T14:08:50;3.33;;;1.52;;
77170;SDS011;66144;50.020;14.422;2023-07-20T14:11:17;3.85;;;1.52;;
77170;SDS011;66144;50.020;14.422;2023-07-20T14:13:43;3.22;;;1.77;;
77170;SDS011;66144;50.020;14.422;2023-07-20T14:16:09;3.13;;;1.70;;
77170;SDS011;66144;50.020;14.422;2023-07-20T14:18:34;2.63;;;1.48;;
77170;SDS011;66144;50.020;14.422;2023-07-20T14:21:00;4.50;;;1.90;;
77170;SDS011;66144;50.020;14.422;2023-07-20T14:23:28;4.85;;;1.98;;
77170;SDS011;66144;50.020;14.422;2023-07-20T14:25:53;3.50;;;1.60;;
77170;SDS011;66144;50.020;14.422;2023-07-20T14:28:19;2.17;;;1.55;;
77170;SDS011;66144;50.020;14.422;2023-07-20T14:30:45;2.38;;;1.77;;
77170;SDS011;66144;50.020;14.422;2023-07-20T14:33:10;3.22;;;1.65;;
77170;SDS011;66144;50.020;14.422;2023-07-20T14:35:36;4.53;;;1.80;;
77170;SDS011;66144;50.020;14.422;2023-07-20T14:38:02;3.25;;;1.73;;
77170;SDS011;66144;50.020;14.422;2023-07-20T14:40:27;4.60;;;1.70;;
77170;SDS011;66144;50.020;14.422;2023-07-20T14:42:53;4.65;;;1.90;;
77170;SDS011;66144;50.020;14.422;2023-07-20T14:45:20;3.78;;;1.48;;
77170;SDS011;66144;50.020;14.422;2023-07-20T14:47:45;3.50;;;1.55;;
77170;SDS011;66144;50.020;14.422;2023-07-20T14:50:11;5.13;;;1.80;;